Orbital elements of EKRAN 2
| Launched | 19 September 1977 |
| Flight ended | – |
| Launch site | Tyuratam Missile and Space Center, Kazakhstan (Also known as Baikonur Cosmodrome) |
| Owner | Commonwealth of Independent States (former USSR) |
| NORAD ID | 10365 |
| Date fetched |
Epoch osculation |
Inc. [°] |
Ecc. | RA asc node [hr] |
Arg Peri. [°] |
Mean anom [°] |
Mean motion [rev/day] |
Abs. mag |
| Date fetched |
Epoch osculation |
Inc. [°] |
Ecc. | RA asc node [hr] |
Arg Peri. [°] |
Mean anom [°] |
Mean motion [rev/day] |
Abs. mag |
| 2026 May 05 17:57 | 2026 May 05 11:56:07 | 4.3451 | 0.00365 | 18.3507 | 20.0583 | 204.8293 | 1.00253 | – |
| 2026 May 04 17:57 | 2026 Apr 30 12:09:04 | 4.3584 | 0.00369 | 18.3552 | 20.1350 | 204.8293 | 1.00253 | – |
| 2026 May 03 17:57 | 2026 Apr 30 12:09:04 | 4.3584 | 0.00369 | 18.3552 | 20.1350 | 204.8293 | 1.00253 | – |
| 2026 May 02 17:57 | 2026 Apr 30 12:09:04 | 4.3584 | 0.00369 | 18.3552 | 20.1350 | 204.8293 | 1.00253 | – |
| 2026 May 01 17:56 | 2026 Apr 30 12:09:04 | 4.3584 | 0.00369 | 18.3552 | 20.1350 | 204.8293 | 1.00253 | – |
| 2026 Apr 30 17:56 | 2026 Apr 30 12:09:04 | 4.3584 | 0.00369 | 18.3552 | 20.1350 | 204.8293 | 1.00253 | – |
| 2026 Apr 29 17:57 | 2026 Apr 24 12:24:30 | 4.3741 | 0.00375 | 18.3604 | 20.1585 | 204.8293 | 1.00253 | – |
| 2026 Apr 28 17:56 | 2026 Apr 24 12:24:30 | 4.3741 | 0.00375 | 18.3604 | 20.1585 | 204.8293 | 1.00253 | – |
| 2026 Apr 27 17:58 | 2026 Apr 24 12:24:30 | 4.3741 | 0.00375 | 18.3604 | 20.1585 | 204.8293 | 1.00253 | – |
| 2026 Apr 26 17:58 | 2026 Apr 24 12:24:30 | 4.3741 | 0.00375 | 18.3604 | 20.1585 | 204.8293 | 1.00253 | – |
| 2026 Apr 25 17:58 | 2026 Apr 24 12:24:30 | 4.3741 | 0.00375 | 18.3604 | 20.1585 | 204.8293 | 1.00253 | – |
| 2026 Apr 24 17:59 | 2026 Apr 24 12:24:30 | 4.3741 | 0.00375 | 18.3604 | 20.1585 | 204.8293 | 1.00253 | – |
| 2026 Apr 23 17:57 | 2026 Apr 19 12:37:19 | 4.3867 | 0.00380 | 18.3649 | 20.0738 | 204.8293 | 1.00253 | – |
| 2026 Apr 22 17:57 | 2026 Apr 19 12:37:19 | 4.3867 | 0.00380 | 18.3649 | 20.0738 | 204.8293 | 1.00253 | – |
| 2026 Apr 21 17:57 | 2026 Apr 19 12:37:19 | 4.3867 | 0.00380 | 18.3649 | 20.0738 | 204.8293 | 1.00253 | – |
| 2026 Apr 20 17:57 | 2026 Apr 19 12:37:19 | 4.3867 | 0.00380 | 18.3649 | 20.0738 | 204.8293 | 1.00253 | – |
| 2026 Apr 19 17:58 | 2026 Apr 19 12:37:19 | 4.3867 | 0.00380 | 18.3649 | 20.0738 | 204.8293 | 1.00253 | – |
| 2026 Apr 18 17:56 | 2026 Apr 13 00:54:11 | 4.4034 | 0.00388 | 18.3706 | 19.8236 | 204.8293 | 1.00253 | – |
| 2026 Apr 16 17:57 | 2026 Apr 13 00:54:11 | 4.4034 | 0.00388 | 18.3706 | 19.8236 | 204.8293 | 1.00253 | – |
| 2026 Apr 14 17:57 | 2026 Apr 13 00:54:11 | 4.4034 | 0.00388 | 18.3706 | 19.8236 | 204.8293 | 1.00253 | – |
| 2026 Apr 13 17:57 | 2026 Apr 13 00:54:11 | 4.4034 | 0.00388 | 18.3706 | 19.8236 | 204.8293 | 1.00253 | – |
| 2026 Apr 12 17:57 | 2026 Apr 08 13:05:30 | 4.4151 | 0.00393 | 18.3745 | 19.6096 | 204.8293 | 1.00253 | – |
| 2026 Apr 11 17:57 | 2026 Apr 08 13:05:30 | 4.4151 | 0.00393 | 18.3745 | 19.6096 | 204.8293 | 1.00253 | – |
| 2026 Apr 10 17:58 | 2026 Apr 08 13:05:30 | 4.4151 | 0.00393 | 18.3745 | 19.6096 | 204.8293 | 1.00253 | – |
| 2026 Apr 09 18:01 | 2026 Apr 08 13:05:30 | 4.4151 | 0.00393 | 18.3745 | 19.6096 | 204.8293 | 1.00253 | – |
| 2026 Apr 08 17:57 | 2026 Apr 08 13:05:30 | 4.4151 | 0.00393 | 18.3745 | 19.6096 | 204.8293 | 1.00253 | – |